FIN7AC EFHK-GCTS
Flight info
| Callsign | FIN7AC |
|---|---|
| Flight time | N/A |
| Altitude | 40000 |
| Route | VALOX Y117 ROSAX DCT DEREX DCT SALLO DCT SULIV DCT ROSOK DCT GESLO DCT IDOSA DCT TOLVU/N0490F410 DCT RAPOR DCT ESTOC DCT PON DCT DITAL DCT GODIX DCT DIDAK DCT KURIS DCT TERPO DCT ERIGA DCT AZFIC DCT LOTEE DCT PINEK DCT VERAM DCT TELMU DCT PECKY DCT RAKUN DCT ORTIS |
| Aircraft | A359/H-SDE2E3GHIJ3J4J5LM1ORWXY/LB1D1 |
Departure
| Time | 2026-04-21 06:45 |
|---|---|
| Airport | Helsinki Vantaa Airport (EFHK) |
Arrival
| Time | N/A |
|---|---|
| Airport | Tenerife Sur Airport (GCTS) |
| Time | Latitude | Longitude | Altitude | Speed | Heading |
|---|---|---|---|---|---|
| 2026-04-21 06:23 | 60.31507 | 24.95721 | 173 ft | 0 kts | 138° |
| 2026-04-21 06:37 | 60.31519 | 24.95701 | 173 ft | 4 kts | 142° |
| 2026-04-21 06:37 | 60.31541 | 24.95671 | 173 ft | 4 kts | 154° |
| 2026-04-21 06:37 | 60.31566 | 24.95653 | 173 ft | 4 kts | 175° |
| 2026-04-21 06:37 | 60.31590 | 24.95660 | 173 ft | 3 kts | 221° |
| 2026-04-21 06:38 | 60.31594 | 24.95665 | 173 ft | 0 kts | 226° |
| 2026-04-21 06:39 | 60.31593 | 24.95665 | 173 ft | 0 kts | 226° |
| 2026-04-21 06:39 | 60.31561 | 24.95593 | 173 ft | 12 kts | 227° |
| 2026-04-21 06:40 | 60.31501 | 24.95461 | 173 ft | 14 kts | 227° |
| 2026-04-21 06:40 | 60.31436 | 24.95320 | 173 ft | 14 kts | 227° |
| 2026-04-21 06:40 | 60.31386 | 24.95184 | 173 ft | 10 kts | 251° |
| 2026-04-21 06:40 | 60.31404 | 24.95071 | 173 ft | 8 kts | 308° |
| 2026-04-21 06:41 | 60.31436 | 24.94972 | 174 ft | 7 kts | 280° |
| 2026-04-21 06:41 | 60.31421 | 24.94857 | 172 ft | 10 kts | 246° |
| 2026-04-21 06:41 | 60.31368 | 24.94723 | 169 ft | 14 kts | 225° |
| 2026-04-21 06:41 | 60.31292 | 24.94556 | 165 ft | 18 kts | 225° |
| 2026-04-21 06:42 | 60.31212 | 24.94380 | 165 ft | 16 kts | 227° |
| 2026-04-21 06:42 | 60.31134 | 24.94208 | 164 ft | 18 kts | 227° |
| 2026-04-21 06:42 | 60.31052 | 24.94025 | 164 ft | 16 kts | 228° |
| 2026-04-21 06:42 | 60.31041 | 24.93884 | 165 ft | 9 kts | 281° |
| 2026-04-21 06:43 | 60.31068 | 24.93774 | 165 ft | 10 kts | 308° |
| 2026-04-21 06:43 | 60.31118 | 24.93681 | 164 ft | 7 kts | 321° |
| 2026-04-21 06:43 | 60.31146 | 24.93676 | 164 ft | 2 kts | 25° |
| 2026-04-21 06:43 | 60.31160 | 24.93701 | 164 ft | 4 kts | 41° |
| 2026-04-21 06:44 | 60.31182 | 24.93748 | 165 ft | 9 kts | 47° |
| 2026-04-21 06:44 | 60.31330 | 24.94075 | 167 ft | 64 kts | 47° |
| 2026-04-21 06:44 | 60.31781 | 24.95056 | 180 ft | 124 kts | 48° |
| 2026-04-21 06:44 | 60.32484 | 24.96586 | 365 ft | 158 kts | 44° |
| 2026-04-21 06:45 | 60.33189 | 24.98167 | 1193 ft | 148 kts | 45° |
| 2026-04-21 06:45 | 60.33856 | 24.99717 | 1796 ft | 147 kts | 43° |
| 2026-04-21 06:45 | 60.34551 | 25.01233 | 2301 ft | 151 kts | 43° |
| 2026-04-21 06:45 | 60.35315 | 25.02866 | 2598 ft | 169 kts | 43° |
| 2026-04-21 06:46 | 60.36170 | 25.04717 | 2869 ft | 190 kts | 44° |
| 2026-04-21 06:46 | 60.37128 | 25.06822 | 3128 ft | 214 kts | 44° |
| 2026-04-21 06:46 | 60.38169 | 25.09125 | 3438 ft | 234 kts | 45° |
| 2026-04-21 06:46 | 60.39146 | 25.11893 | 3877 ft | 252 kts | 65° |
| 2026-04-21 06:47 | 60.39539 | 25.15385 | 4562 ft | 257 kts | 78° |
| 2026-04-21 06:47 | 60.39566 | 25.19042 | 5251 ft | 266 kts | 96° |
| 2026-04-21 06:47 | 60.38811 | 25.22479 | 5940 ft | 275 kts | 128° |
| 2026-04-21 06:47 | 60.37220 | 25.24643 | 6613 ft | 283 kts | 161° |
| 2026-04-21 06:48 | 60.35256 | 25.24779 | 7223 ft | 288 kts | 195° |
| 2026-04-21 06:48 | 60.33523 | 25.22829 | 7813 ft | 288 kts | 225° |
| 2026-04-21 06:48 | 60.32453 | 25.19480 | 8436 ft | 285 kts | 253° |
| 2026-04-21 06:48 | 60.31789 | 25.15699 | 9081 ft | 288 kts | 255° |
| 2026-04-21 06:49 | 60.31119 | 25.11855 | 9733 ft | 292 kts | 254° |
| 2026-04-21 06:49 | 60.30407 | 25.07980 | 10366 ft | 296 kts | 253° |
| 2026-04-21 06:49 | 60.29799 | 25.05135 | 10622 ft | 309 kts | 246° |
| 2026-04-21 06:49 | 60.28799 | 25.02210 | 10825 ft | 326 kts | 230° |
| 2026-04-21 06:50 | 60.27096 | 24.99000 | 11092 ft | 343 kts | 222° |
| 2026-04-21 06:50 | 60.25234 | 24.95918 | 11340 ft | 358 kts | 221° |
| 2026-04-21 06:50 | 60.23255 | 24.92721 | 11607 ft | 372 kts | 220° |
| 2026-04-21 06:50 | 60.21198 | 24.89417 | 11885 ft | 384 kts | 220° |
| 2026-04-21 06:51 | 60.19092 | 24.86045 | 12314 ft | 390 kts | 220° |
| 2026-04-21 06:51 | 60.16950 | 24.82622 | 12782 ft | 395 kts | 220° |
| 2026-04-21 06:51 | 60.14788 | 24.79174 | 13267 ft | 399 kts | 220° |
| 2026-04-21 06:51 | 60.12599 | 24.75687 | 13752 ft | 403 kts | 220° |
| 2026-04-21 06:52 | 60.10387 | 24.72170 | 14215 ft | 407 kts | 220° |
| 2026-04-21 06:52 | 60.08162 | 24.68640 | 14672 ft | 410 kts | 220° |
| 2026-04-21 06:52 | 60.05909 | 24.65069 | 15139 ft | 413 kts | 220° |
| 2026-04-21 06:52 | 60.03642 | 24.61483 | 15591 ft | 416 kts | 220° |
| 2026-04-21 06:53 | 60.01364 | 24.57887 | 16046 ft | 419 kts | 220° |
| 2026-04-21 06:53 | 59.99063 | 24.54261 | 16500 ft | 422 kts | 220° |
| 2026-04-21 06:53 | 59.96753 | 24.50626 | 16953 ft | 425 kts | 219° |
| 2026-04-21 06:53 | 59.94420 | 24.46963 | 17429 ft | 428 kts | 219° |
| 2026-04-21 06:54 | 59.92075 | 24.43286 | 17875 ft | 431 kts | 219° |
| 2026-04-21 06:54 | 59.89708 | 24.39584 | 18328 ft | 434 kts | 219° |
| 2026-04-21 06:54 | 59.87329 | 24.35869 | 18741 ft | 437 kts | 219° |
| 2026-04-21 06:54 | 59.84958 | 24.32174 | 19113 ft | 440 kts | 219° |
| 2026-04-21 06:55 | 59.82542 | 24.28415 | 19479 ft | 443 kts | 219° |
| 2026-04-21 06:55 | 59.80108 | 24.24634 | 19860 ft | 446 kts | 219° |
| 2026-04-21 06:55 | 59.77651 | 24.20826 | 20227 ft | 448 kts | 219° |
| 2026-04-21 06:55 | 59.75183 | 24.17008 | 20589 ft | 451 kts | 219° |
| 2026-04-21 06:56 | 59.72700 | 24.13175 | 20953 ft | 454 kts | 219° |
| 2026-04-21 06:56 | 59.70172 | 24.09386 | 21319 ft | 457 kts | 217° |
| 2026-04-21 06:56 | 59.67577 | 24.05699 | 21649 ft | 460 kts | 216° |
| 2026-04-21 06:56 | 59.64942 | 24.02043 | 21995 ft | 463 kts | 216° |
| 2026-04-21 06:57 | 59.62281 | 23.98373 | 22348 ft | 466 kts | 216° |
| 2026-04-21 06:57 | 59.59619 | 23.94692 | 22691 ft | 469 kts | 216° |
| 2026-04-21 06:57 | 59.56986 | 23.91015 | 23033 ft | 471 kts | 216° |
| 2026-04-21 06:57 | 59.54302 | 23.87262 | 23377 ft | 474 kts | 216° |
| 2026-04-21 06:58 | 59.51600 | 23.83483 | 23717 ft | 477 kts | 216° |
| 2026-04-21 06:58 | 59.48921 | 23.79623 | 24010 ft | 479 kts | 220° |
| 2026-04-21 06:58 | 59.46456 | 23.75201 | 24317 ft | 480 kts | 226° |
| 2026-04-21 06:58 | 59.44105 | 23.70496 | 24610 ft | 481 kts | 229° |
| 2026-04-21 06:59 | 59.41815 | 23.65703 | 24928 ft | 483 kts | 229° |
| 2026-04-21 06:59 | 59.39531 | 23.60819 | 25228 ft | 485 kts | 230° |
| 2026-04-21 06:59 | 59.37257 | 23.55928 | 25538 ft | 487 kts | 230° |
| 2026-04-21 06:59 | 59.34966 | 23.51011 | 25854 ft | 489 kts | 230° |
| 2026-04-21 07:00 | 59.32685 | 23.46142 | 26162 ft | 492 kts | 230° |
| 2026-04-21 07:00 | 59.30361 | 23.41210 | 26485 ft | 494 kts | 230° |
| 2026-04-21 07:00 | 59.28014 | 23.36255 | 26819 ft | 497 kts | 229° |
| 2026-04-21 07:00 | 59.25656 | 23.31297 | 27162 ft | 499 kts | 229° |
| 2026-04-21 07:01 | 59.23281 | 23.26317 | 27512 ft | 502 kts | 229° |
| 2026-04-21 07:01 | 59.20891 | 23.21318 | 27814 ft | 505 kts | 229° |
| 2026-04-21 07:01 | 59.16059 | 23.11244 | 28544 ft | 511 kts | 229° |
| 2026-04-21 07:02 | 59.13620 | 23.06176 | 28903 ft | 513 kts | 229° |
| 2026-04-21 07:02 | 59.11176 | 23.01107 | 29259 ft | 516 kts | 229° |
| 2026-04-21 07:02 | 59.08708 | 22.96000 | 29596 ft | 519 kts | 229° |
| 2026-04-21 07:02 | 59.06225 | 22.90873 | 29922 ft | 522 kts | 229° |
| 2026-04-21 07:03 | 59.03758 | 22.85791 | 30241 ft | 525 kts | 229° |
| 2026-04-21 07:03 | 59.01245 | 22.80625 | 30529 ft | 527 kts | 229° |
| 2026-04-21 07:03 | 58.98717 | 22.75439 | 30790 ft | 530 kts | 229° |
| 2026-04-21 07:03 | 58.96175 | 22.70240 | 31110 ft | 531 kts | 229° |
| 2026-04-21 07:04 | 58.93620 | 22.65024 | 31412 ft | 533 kts | 229° |
| 2026-04-21 07:04 | 58.91058 | 22.59808 | 31706 ft | 535 kts | 229° |
| 2026-04-21 07:04 | 58.88492 | 22.54593 | 32011 ft | 536 kts | 229° |
| 2026-04-21 07:04 | 58.85913 | 22.49366 | 32316 ft | 537 kts | 229° |
| 2026-04-21 07:05 | 58.83332 | 22.44148 | 32716 ft | 535 kts | 229° |
| 2026-04-21 07:05 | 58.80789 | 22.39018 | 33143 ft | 533 kts | 229° |
| 2026-04-21 07:05 | 58.78227 | 22.33861 | 33529 ft | 532 kts | 228° |
| 2026-04-21 07:05 | 58.75661 | 22.28706 | 33907 ft | 531 kts | 228° |
| 2026-04-21 07:06 | 58.73100 | 22.23575 | 34324 ft | 530 kts | 228° |
| 2026-04-21 07:06 | 58.70548 | 22.18472 | 34649 ft | 528 kts | 228° |
| 2026-04-21 07:06 | 58.67997 | 22.13382 | 34991 ft | 527 kts | 228° |
| 2026-04-21 07:06 | 58.65451 | 22.08314 | 35307 ft | 526 kts | 228° |
| 2026-04-21 07:07 | 58.62910 | 22.03266 | 35610 ft | 525 kts | 227° |
| 2026-04-21 07:07 | 58.60372 | 21.98236 | 35889 ft | 524 kts | 227° |
| 2026-04-21 07:07 | 58.57834 | 21.93216 | 36175 ft | 524 kts | 227° |
| 2026-04-21 07:07 | 58.55300 | 21.88217 | 36499 ft | 522 kts | 227° |
| 2026-04-21 07:08 | 58.53624 | 21.84916 | 36700 ft | 522 kts | 227° |
| 2026-04-21 07:08 | 58.51095 | 21.79944 | 36958 ft | 521 kts | 227° |
| 2026-04-21 07:08 | 58.48562 | 21.74975 | 37217 ft | 521 kts | 227° |
| 2026-04-21 07:08 | 58.45208 | 21.68413 | 37545 ft | 520 kts | 226° |
| 2026-04-21 07:09 | 58.42677 | 21.63473 | 37796 ft | 520 kts | 226° |
| 2026-04-21 07:09 | 58.40969 | 21.60147 | 37976 ft | 519 kts | 226° |
| 2026-04-21 07:09 | 58.38447 | 21.55242 | 38232 ft | 518 kts | 226° |
| 2026-04-21 07:09 | 58.35925 | 21.50349 | 38463 ft | 517 kts | 226° |
| 2026-04-21 07:10 | 58.33432 | 21.45523 | 38692 ft | 517 kts | 226° |
| 2026-04-21 07:10 | 58.30906 | 21.40642 | 38904 ft | 517 kts | 226° |
| 2026-04-21 07:10 | 58.28377 | 21.35767 | 39074 ft | 516 kts | 226° |
| 2026-04-21 07:10 | 58.25851 | 21.30909 | 39207 ft | 517 kts | 226° |
| 2026-04-21 07:11 | 58.23325 | 21.26060 | 39334 ft | 517 kts | 226° |
| 2026-04-21 07:11 | 58.20793 | 21.21210 | 39458 ft | 517 kts | 226° |
| 2026-04-21 07:11 | 58.18261 | 21.16370 | 39586 ft | 517 kts | 225° |
| 2026-04-21 07:11 | 58.15726 | 21.11536 | 39716 ft | 517 kts | 225° |
| 2026-04-21 07:12 | 58.13190 | 21.06709 | 39845 ft | 517 kts | 225° |
| 2026-04-21 07:12 | 58.10654 | 21.01895 | 39982 ft | 517 kts | 225° |
| 2026-04-21 07:12 | 58.08114 | 20.97081 | 40101 ft | 517 kts | 225° |